Time;durP1;ratioP1;P1;durP2;ratioP2;P2;SDS_P1;SDS_P2;PMS_P1;PMS_P2;Temp;Humidity;BMP_temperature;BMP_pressure;BME280_temperature;BME280_humidity;BME280_pressure;Samples;Min_cycle;Max_cycle;Signal;HPM_P1;HPM_P2
2024/04/19 00:01:24;;;;;;;;;;;;;;;1.34;54.62;95458.66;5389112;26;19949;-67
2024/04/19 00:03:49;;;;;;;;;;;;;;;1.53;54.12;95454.53;5389092;26;20365;-67
2024/04/19 00:06:14;;;;;;;;;;;;;;;1.52;54.00;95458.09;5382996;26;19929;-67
2024/04/19 00:08:39;;;;;;;;;;;;;;;1.59;53.25;95461.91;5376693;26;20361;-67
2024/04/19 00:11:05;;;;;;;;;;;;;;;1.81;53.43;95454.88;5388796;26;19929;-67
2024/04/19 00:13:30;;;;;;;;;;;;;;;1.94;52.49;95448.63;5385390;26;19937;-67
2024/04/19 00:15:58;;;;;;;;;;;;;;;1.92;52.79;95440.88;5377811;26;19941;-67
2024/04/19 00:18:24;;;;;;;;;;;;;;;1.48;53.75;95447.03;5387724;26;20521;-67
2024/04/19 00:20:49;;;;;;;;;;;;;;;1.61;52.93;95444.25;5390984;26;19929;-67
2024/04/19 00:23:14;;;;;;;;;;;;;;;1.67;52.86;95434.22;5385957;26;20658;-67
2024/04/19 00:25:39;;;;;;;;;;;;;;;1.47;53.50;95442.72;5387373;26;19941;-67
2024/04/19 00:28:05;;;;;;;;;;;;;;;1.31;54.41;95440.53;5390375;26;19929;-67
2024/04/19 00:30:30;;;;;;;;;;;;;;;1.27;54.07;95435.63;5384755;26;19929;-67
2024/04/19 00:32:55;;;;;;;;;;;;;;;1.45;53.50;95423.66;5390594;26;19944;-67
2024/04/19 00:35:20;;;;;;;;;;;;;;;1.74;52.88;95423.06;5387694;26;19955;-67
2024/04/19 00:37:46;;;;;;;;;;;;;;;1.67;52.07;95427.16;5376261;26;20193;-67
2024/04/19 00:40:11;;;;;;;;;;;;;;;1.24;53.50;95426.25;5373269;26;20372;-67
2024/04/19 00:42:36;;;;;;;;;;;;;;;0.93;54.92;95426.91;5378868;26;19929;-67
2024/04/19 00:45:02;;;;;;;;;;;;;;;0.57;54.79;95421.84;5396334;26;20010;-67
2024/04/19 00:47:27;;;;;;;;;;;;;;;1.36;54.01;95408.66;5374163;26;20477;-67
2024/04/19 00:49:52;;;;;;;;;;;;;;;1.58;53.17;95397.28;5381785;26;19941;-67
2024/04/19 00:52:18;;;;;;;;;;;;;;;2.09;51.87;95396.59;5381969;26;19936;-67
2024/04/19 00:54:43;;;;;;;;;;;;;;;2.05;51.78;95388.16;5387112;26;20246;-67
2024/04/19 00:57:09;;;;;;;;;;;;;;;0.50;55.52;95390.97;5381826;26;20128;-67
2024/04/19 00:59:34;;;;;;;;;;;;;;;1.28;54.46;95379.59;5378411;26;19948;-67
2024/04/19 01:02:00;;;;;;;;;;;;;;;1.17;53.63;95373.44;5373404;26;19937;-67
2024/04/19 01:04:25;;;;;;;;;;;;;;;1.36;53.73;95370.16;5390452;26;19936;-67
2024/04/19 01:06:50;;;;;;;;;;;;;;;1.35;54.20;95365.88;5390087;26;19930;-67
2024/04/19 01:09:15;;;;;;;;;;;;;;;1.29;53.75;95360.28;5391117;26;20406;-67
2024/04/19 01:11:41;;;;;;;;;;;;;;;0.97;55.51;95354.09;5382926;26;20638;-67
2024/04/19 01:14:06;;;;;;;;;;;;;;;1.99;52.37;95351.91;5388620;26;19930;-67
2024/04/19 01:16:31;;;;;;;;;;;;;;;1.99;51.86;95347.50;5388136;26;19982;-67
2024/04/19 01:18:56;;;;;;;;;;;;;;;0.94;54.44;95338.59;5388220;26;19941;-67
2024/04/19 01:21:22;;;;;;;;;;;;;;;2.08;51.66;95330.09;5394454;26;19929;-67
2024/04/19 01:23:47;;;;;;;;;;;;;;;2.07;51.96;95330.22;5390903;26;19936;-67
2024/04/19 01:26:13;;;;;;;;;;;;;;;1.93;52.70;95326.16;5388887;26;19950;-67
2024/04/19 01:28:38;;;;;;;;;;;;;;;2.50;51.37;95318.66;5389072;26;19940;-67
2024/04/19 01:31:03;;;;;;;;;;;;;;;2.41;50.74;95319.44;5391747;26;19937;-67
2024/04/19 01:33:28;;;;;;;;;;;;;;;2.30;51.30;95315.13;5389115;26;20588;-67
2024/04/19 01:35:53;;;;;;;;;;;;;;;1.57;54.19;95309.00;5391798;26;20413;-67
2024/04/19 01:38:19;;;;;;;;;;;;;;;1.99;52.92;95305.50;5393530;26;20376;-67
2024/04/19 01:40:44;;;;;;;;;;;;;;;1.62;53.14;95319.94;5388163;26;19944;-67
2024/04/19 01:43:09;;;;;;;;;;;;;;;2.11;53.29;95318.53;5384090;26;19981;-67
2024/04/19 01:45:34;;;;;;;;;;;;;;;1.61;53.51;95323.50;5388656;26;19929;-67
2024/04/19 01:48:00;;;;;;;;;;;;;;;1.09;55.49;95332.09;5388035;26;20605;-67
2024/04/19 01:50:25;;;;;;;;;;;;;;;-0.15;58.98;95334.81;5391514;26;20351;-67
2024/04/19 01:52:50;;;;;;;;;;;;;;;-0.66;64.22;95336.88;5391197;26;19955;-67
2024/04/19 01:55:17;;;;;;;;;;;;;;;-0.71;64.42;95323.31;5389086;26;19982;-67
2024/04/19 01:57:43;;;;;;;;;;;;;;;-0.49;63.83;95317.31;5393113;26;20292;-67
2024/04/19 02:00:08;;;;;;;;;;;;;;;-0.92;64.53;95312.69;5391867;26;20353;-67
2024/04/19 02:02:34;;;;;;;;;;;;;;;0.04;62.06;95310.66;5389870;26;19934;-66
2024/04/19 02:04:59;;;;;;;;;;;;;;;-0.46;62.31;95309.22;5392866;26;20506;-65
2024/04/19 02:07:24;;;;;;;;;;;;;;;-0.31;62.54;95308.97;5393571;26;19929;-67
2024/04/19 02:09:49;;;;;;;;;;;;;;;-0.39;62.84;95295.66;5393285;26;20201;-67
2024/04/19 02:12:15;;;;;;;;;;;;;;;-0.82;64.69;95295.34;5393243;26;19985;-67
2024/04/19 02:14:40;;;;;;;;;;;;;;;-0.97;65.78;95307.75;5392852;26;19944;-66
2024/04/19 02:17:05;;;;;;;;;;;;;;;-1.60;67.92;95293.94;5393327;26;20048;-66
2024/04/19 02:19:36;;;;;;;;;;;;;;;-1.58;67.97;95293.81;5392332;26;20128;-66
2024/04/19 02:22:04;;;;;;;;;;;;;;;-1.46;69.00;95282.50;5384707;26;20251;-67
2024/04/19 02:24:29;;;;;;;;;;;;;;;-2.03;70.81;95284.75;5392224;26;20534;-67
2024/04/19 02:26:55;;;;;;;;;;;;;;;-1.49;69.34;95274.06;5393024;26;20398;-67
2024/04/19 02:32:04;;;;;;;;;;;;;;;-0.99;66.54;95255.59;5392542;26;20189;-66
2024/04/19 02:34:30;;;;;;;;;;;;;;;-0.83;65.21;95246.63;5389318;26;20566;-67
2024/04/19 02:36:55;;;;;;;;;;;;;;;-0.82;64.41;95229.97;5392473;26;19929;-66
2024/04/19 02:39:20;;;;;;;;;;;;;;;-0.31;61.87;95214.78;5392238;26;20457;-67
2024/04/19 02:41:46;;;;;;;;;;;;;;;0.08;59.48;95202.13;5380879;26;19963;-67
2024/04/19 02:44:11;;;;;;;;;;;;;;;0.31;58.36;95194.22;5386641;26;19955;-67
2024/04/19 02:46:36;;;;;;;;;;;;;;;0.29;57.64;95201.38;5391964;26;19970;-66
2024/04/19 02:49:01;;;;;;;;;;;;;;;-0.49;59.28;95196.13;5389539;26;20635;-67
2024/04/19 02:51:27;;;;;;;;;;;;;;;-0.58;60.20;95208.97;5390484;26;19936;-67
2024/04/19 02:53:52;;;;;;;;;;;;;;;-0.89;60.17;95211.31;5390584;26;19979;-66
2024/04/19 02:56:17;;;;;;;;;;;;;;;-1.46;60.35;95205.91;5391884;26;20371;-67
2024/04/19 02:58:42;;;;;;;;;;;;;;;-1.60;59.28;95202.53;5390505;26;19947;-67
2024/04/19 03:01:08;;;;;;;;;;;;;;;-1.80;60.61;95190.94;5378565;26;19967;-66
2024/04/19 03:03:33;;;;;;;;;;;;;;;-2.33;59.49;95212.94;5388831;26;19929;-66
2024/04/19 03:05:58;;;;;;;;;;;;;;;-2.31;59.91;95200.59;5391397;26;20270;-67
2024/04/19 03:08:25;;;;;;;;;;;;;;;-2.15;61.04;95194.31;5389177;26;19929;-67
2024/04/19 03:10:50;;;;;;;;;;;;;;;-3.10;65.74;95188.59;5387130;26;20726;-68
2024/04/19 03:13:15;;;;;;;;;;;;;;;-3.25;68.33;95187.84;5384617;26;20259;-67
2024/04/19 03:15:41;;;;;;;;;;;;;;;-3.28;69.47;95173.28;5389291;26;20006;-65
2024/04/19 03:18:06;;;;;;;;;;;;;;;-3.21;69.93;95170.25;5382853;26;19945;-66
2024/04/19 03:20:31;;;;;;;;;;;;;;;-3.38;70.42;95166.16;5389884;26;19986;-68
2024/04/19 03:22:56;;;;;;;;;;;;;;;-3.36;72.33;95183.34;5385615;26;20455;-68
2024/04/19 03:25:22;;;;;;;;;;;;;;;-3.61;72.66;95156.34;5390373;26;19961;-68
2024/04/19 03:27:50;;;;;;;;;;;;;;;-3.26;71.63;95170.53;5390471;26;19933;-67
2024/04/19 03:30:29;;;;;;;;;;;;;;;-3.70;75.03;95159.56;5389837;26;20408;-65
2024/04/19 03:32:54;;;;;;;;;;;;;;;-3.75;76.46;95148.59;5376844;26;19937;-67
2024/04/19 03:35:20;;;;;;;;;;;;;;;-3.71;77.04;95140.50;5390700;26;20459;-67
2024/04/19 03:37:45;;;;;;;;;;;;;;;-3.31;76.96;95134.41;5385771;26;20000;-67
2024/04/19 03:40:10;;;;;;;;;;;;;;;-3.19;75.89;95148.38;5382558;26;19929;-68
2024/04/19 03:42:45;;;;;;;;;;;;;;;-3.45;76.78;95150.13;5383383;26;19959;-67
2024/04/19 03:47:58;;;;;;;;;;;;;;;-3.46;75.92;95133.66;5382779;26;19974;-67
2024/04/19 03:50:23;;;;;;;;;;;;;;;-3.38;76.54;95124.50;5379031;26;19959;-65
2024/04/19 03:52:48;;;;;;;;;;;;;;;-3.32;76.15;95122.34;5388542;26;20000;-67
2024/04/19 03:55:14;;;;;;;;;;;;;;;-2.95;74.04;95124.19;5390426;26;20328;-68
2024/04/19 03:57:39;;;;;;;;;;;;;;;-2.66;73.30;95117.88;5392230;26;19986;-66
2024/04/19 04:00:05;;;;;;;;;;;;;;;-3.17;73.81;95111.81;5386665;26;20071;-68
2024/04/19 04:02:30;;;;;;;;;;;;;;;-3.00;74.18;95100.22;5390315;26;20281;-68
2024/04/19 04:04:55;;;;;;;;;;;;;;;-3.28;74.89;95100.38;5385385;26;20069;-70
2024/04/19 04:07:20;;;;;;;;;;;;;;;-3.52;75.56;95095.88;5385109;26;20219;-68
2024/04/19 04:09:46;;;;;;;;;;;;;;;-3.36;74.25;95091.41;5390540;26;19937;-66
2024/04/19 04:12:11;;;;;;;;;;;;;;;-3.27;73.52;95080.34;5389928;26;19940;-66
2024/04/19 04:14:36;;;;;;;;;;;;;;;-2.88;72.25;95075.09;5390194;26;19929;-66
2024/04/19 04:17:02;;;;;;;;;;;;;;;-2.41;71.43;95087.47;5390585;26;19955;-65
2024/04/19 04:19:27;;;;;;;;;;;;;;;-2.82;70.64;95081.66;5389947;26;19929;-67
2024/04/19 04:21:52;;;;;;;;;;;;;;;-2.75;71.18;95060.25;5387598;26;19979;-68
2024/04/19 04:24:17;;;;;;;;;;;;;;;-2.79;70.60;95050.16;5394014;26;19998;-67
2024/04/19 04:26:43;;;;;;;;;;;;;;;-2.77;70.33;95090.81;5395305;26;20420;-68
2024/04/19 04:29:08;;;;;;;;;;;;;;;-3.08;72.43;95050.44;5390168;26;19989;-67
2024/04/19 04:31:33;;;;;;;;;;;;;;;-3.25;72.24;95039.44;5394443;26;20414;-67
2024/04/19 04:33:58;;;;;;;;;;;;;;;-3.05;71.84;95035.41;5392919;26;19963;-68
2024/04/19 04:36:24;;;;;;;;;;;;;;;-2.90;70.13;95024.88;5392003;26;19964;-68
2024/04/19 04:38:49;;;;;;;;;;;;;;;-2.76;70.33;95027.34;5393741;26;19929;-68
2024/04/19 04:41:14;;;;;;;;;;;;;;;-2.89;70.97;95026.53;5394284;26;19929;-67
2024/04/19 04:43:40;;;;;;;;;;;;;;;-3.11;71.19;95020.25;5389385;26;19936;-67
2024/04/19 04:46:05;;;;;;;;;;;;;;;-2.81;70.05;95034.66;5393871;26;19948;-67
2024/04/19 04:48:31;;;;;;;;;;;;;;;-2.61;69.19;95019.34;5374117;26;20011;-67
2024/04/19 04:50:56;;;;;;;;;;;;;;;-3.15;68.64;95022.22;5385165;26;19929;-67
2024/04/19 04:53:22;;;;;;;;;;;;;;;-2.97;68.62;95008.00;5388827;26;20006;-67
2024/04/19 04:55:47;;;;;;;;;;;;;;;-2.79;67.38;94993.66;5384941;26;19930;-67
2024/04/19 04:58:12;;;;;;;;;;;;;;;-2.55;66.12;95012.88;5392103;26;20591;-67
2024/04/19 05:00:38;;;;;;;;;;;;;;;-2.95;65.92;95011.34;5391357;26;19928;-67
2024/04/19 05:03:06;;;;;;;;;;;;;;;-2.39;65.73;95007.34;5390660;26;20524;-67
2024/04/19 05:05:31;;;;;;;;;;;;;;;-2.62;65.29;95007.25;5392221;26;19933;-67
2024/04/19 05:07:57;;;;;;;;;;;;;;;-3.04;65.15;95008.44;5393674;26;20208;-68
2024/04/19 05:10:22;;;;;;;;;;;;;;;-2.89;67.85;95000.47;5391785;26;20437;-67
2024/04/19 05:12:48;;;;;;;;;;;;;;;-3.46;67.25;94994.88;5393408;26;19954;-68
2024/04/19 05:15:13;;;;;;;;;;;;;;;-3.39;68.43;95016.97;5385011;26;20135;-67
2024/04/19 05:17:38;;;;;;;;;;;;;;;-3.35;70.51;94991.53;5384207;26;19966;-67
2024/04/19 05:20:04;;;;;;;;;;;;;;;-3.38;69.78;94984.78;5390015;26;19995;-67
2024/04/19 05:22:29;;;;;;;;;;;;;;;-3.47;71.22;94988.03;5393654;26;20390;-67
2024/04/19 05:24:54;;;;;;;;;;;;;;;-3.25;70.56;94983.91;5390984;26;20339;-67
2024/04/19 05:27:19;;;;;;;;;;;;;;;-3.28;70.75;94974.53;5387322;26;19945;-67
2024/04/19 05:29:45;;;;;;;;;;;;;;;-3.41;71.85;94982.38;5385251;26;19941;-68
2024/04/19 05:32:10;;;;;;;;;;;;;;;-2.90;70.57;94991.84;5379464;26;20393;-68
2024/04/19 05:34:35;;;;;;;;;;;;;;;-3.24;71.97;94976.00;5386845;26;19995;-68
2024/04/19 05:37:00;;;;;;;;;;;;;;;-3.90;75.04;94982.22;5384447;26;19929;-67
2024/04/19 05:39:26;;;;;;;;;;;;;;;-4.05;77.37;95013.50;5392673;26;19929;-66
2024/04/19 05:41:51;;;;;;;;;;;;;;;-4.21;78.92;94969.47;5386495;26;19998;-67
2024/04/19 05:44:18;;;;;;;;;;;;;;;-4.14;77.88;94971.69;5391069;26;20391;-67
2024/04/19 05:46:45;;;;;;;;;;;;;;;-3.98;79.80;94976.69;5393388;26;20430;-67
2024/04/19 05:49:10;;;;;;;;;;;;;;;-3.78;78.93;94975.34;5393655;26;20299;-68
2024/04/19 05:51:35;;;;;;;;;;;;;;;-4.18;80.24;94969.28;5393522;26;20265;-65
2024/04/19 05:54:00;;;;;;;;;;;;;;;-4.53;81.64;94962.06;5393682;26;19932;-66
2024/04/19 05:56:27;;;;;;;;;;;;;;;-4.24;82.31;94963.66;5388720;26;20374;-67
2024/04/19 05:58:53;;;;;;;;;;;;;;;-3.99;82.46;94956.81;5389800;26;19929;-68
2024/04/19 06:01:18;;;;;;;;;;;;;;;-4.09;81.10;94951.41;5392370;26;19944;-67
2024/04/19 06:03:43;;;;;;;;;;;;;;;-4.46;83.13;94958.13;5381672;26;19957;-66
2024/04/19 06:06:08;;;;;;;;;;;;;;;-4.37;83.97;94956.69;5392868;26;20287;-66
2024/04/19 06:08:34;;;;;;;;;;;;;;;-3.47;81.88;94939.38;5375247;26;19941;-66
2024/04/19 06:10:59;;;;;;;;;;;;;;;-3.07;80.54;94935.72;5388452;26;19940;-68
2024/04/19 06:13:24;;;;;;;;;;;;;;;-3.07;79.10;94942.69;5385819;26;19929;-66
2024/04/19 06:15:51;;;;;;;;;;;;;;;-2.95;77.46;94935.78;5384972;26;20430;-68
2024/04/19 06:18:16;;;;;;;;;;;;;;;-3.81;78.61;94952.97;5392181;26;20447;-67
2024/04/19 06:20:42;;;;;;;;;;;;;;;-3.90;79.92;94932.78;5392436;26;19937;-66
2024/04/19 06:23:07;;;;;;;;;;;;;;;-4.69;81.96;94944.03;5393501;26;20482;-66
2024/04/19 06:25:33;;;;;;;;;;;;;;;-4.02;82.58;94931.00;5392039;26;20463;-66
2024/04/19 06:27:58;;;;;;;;;;;;;;;-3.76;80.26;94918.00;5390071;26;20357;-66
2024/04/19 06:30:24;;;;;;;;;;;;;;;-3.93;80.84;94915.59;5392268;26;20051;-66
2024/04/19 06:32:49;;;;;;;;;;;;;;;-3.91;80.08;94920.69;5392193;26;19929;-66
2024/04/19 06:35:18;;;;;;;;;;;;;;;-4.26;80.92;94914.38;5392021;26;20339;-67
2024/04/19 06:37:43;;;;;;;;;;;;;;;-3.61;80.78;94911.72;5387735;26;19936;-66
2024/04/19 06:40:08;;;;;;;;;;;;;;;-4.97;81.65;94905.09;5391571;26;19929;-67
2024/04/19 06:42:34;;;;;;;;;;;;;;;-3.70;81.14;94892.38;5385436;26;20454;-67
2024/04/19 06:44:59;;;;;;;;;;;;;;;-3.09;79.12;94895.94;5391940;26;20169;-67
2024/04/19 06:47:24;;;;;;;;;;;;;;;-2.73;77.81;94890.75;5390973;26;20358;-67
2024/04/19 06:49:49;;;;;;;;;;;;;;;-3.02;79.34;94873.72;5390696;26;19928;-67
2024/04/19 06:52:15;;;;;;;;;;;;;;;-2.72;77.14;94875.97;5391501;26;20231;-67
2024/04/19 06:54:40;;;;;;;;;;;;;;;-2.73;77.63;94871.69;5387897;26;20628;-67
2024/04/19 06:57:05;;;;;;;;;;;;;;;-2.91;77.71;94866.91;5389194;26;20308;-67
2024/04/19 06:59:30;;;;;;;;;;;;;;;-3.63;79.45;94856.38;5384567;26;20035;-67
2024/04/19 07:01:56;;;;;;;;;;;;;;;-2.90;78.12;94850.31;5389565;26;20399;-67
2024/04/19 07:04:21;;;;;;;;;;;;;;;-2.87;77.34;94842.28;5391553;26;19979;-67
2024/04/19 07:06:46;;;;;;;;;;;;;;;-2.44;77.76;94834.78;5387212;26;20002;-67
2024/04/19 07:09:13;;;;;;;;;;;;;;;-2.21;75.33;94835.63;5384442;26;19928;-67
2024/04/19 07:11:39;;;;;;;;;;;;;;;-3.18;76.39;94845.38;5392013;26;20200;-67
2024/04/19 07:14:04;;;;;;;;;;;;;;;-3.78;76.00;94838.28;5388766;26;20358;-67
2024/04/19 07:16:29;;;;;;;;;;;;;;;-2.69;77.26;94847.03;5385109;26;19944;-67
2024/04/19 07:18:54;;;;;;;;;;;;;;;-2.29;75.27;94828.41;5389359;26;19981;-67
2024/04/19 07:21:20;;;;;;;;;;;;;;;-1.69;72.11;94821.28;5391247;26;20454;-67
2024/04/19 07:23:45;;;;;;;;;;;;;;;-1.87;71.92;94811.31;5391290;26;19929;-67
2024/04/19 07:26:10;;;;;;;;;;;;;;;-1.90;71.73;94808.97;5391089;26;19929;-67
2024/04/19 07:28:35;;;;;;;;;;;;;;;-2.05;70.45;94798.78;5387189;26;19953;-67
2024/04/19 07:31:00;;;;;;;;;;;;;;;-2.85;72.74;94808.28;5382160;26;20488;-67
2024/04/19 07:33:26;;;;;;;;;;;;;;;-4.00;77.58;94801.72;5390611;26;20353;-67
2024/04/19 07:35:51;;;;;;;;;;;;;;;-2.31;74.30;94792.97;5390870;26;20204;-67
2024/04/19 07:38:16;;;;;;;;;;;;;;;-1.93;73.12;94789.13;5391295;26;19935;-67
2024/04/19 07:40:42;;;;;;;;;;;;;;;-2.50;73.58;94802.19;5390824;26;19940;-67
2024/04/19 07:43:07;;;;;;;;;;;;;;;-3.12;75.82;94789.41;5379270;26;19936;-67
2024/04/19 07:45:32;;;;;;;;;;;;;;;-3.04;75.64;94776.63;5383861;26;19987;-67
2024/04/19 07:47:57;;;;;;;;;;;;;;;-2.90;76.33;94785.19;5389437;26;20318;-67
2024/04/19 07:50:23;;;;;;;;;;;;;;;-2.14;74.31;94778.63;5391563;26;19941;-68
2024/04/19 07:52:50;;;;;;;;;;;;;;;-1.56;72.81;94761.09;5391320;26;19929;-69
2024/04/19 07:55:15;;;;;;;;;;;;;;;-2.22;75.28;94758.34;5383382;26;20499;-68
2024/04/19 07:57:41;;;;;;;;;;;;;;;-2.87;74.62;94761.50;5395203;26;19929;-67
2024/04/19 08:00:11;;;;;;;;;;;;;;;-3.17;77.95;94762.84;5393338;26;19929;-67
2024/04/19 08:02:36;;;;;;;;;;;;;;;-2.09;75.54;94757.38;5393718;26;20278;-69
2024/04/19 08:05:01;;;;;;;;;;;;;;;-2.00;74.44;94752.28;5390560;26;19962;-70
2024/04/19 08:07:27;;;;;;;;;;;;;;;-2.97;76.17;94758.75;5386286;26;19940;-67
2024/04/19 08:09:53;;;;;;;;;;;;;;;-2.64;76.74;94744.13;5388769;26;19929;-67
2024/04/19 08:12:18;;;;;;;;;;;;;;;-2.75;76.77;94747.53;5384803;26;20144;-70
2024/04/19 08:14:43;;;;;;;;;;;;;;;-2.30;75.74;94740.69;5387046;26;19937;-68
2024/04/19 08:17:08;;;;;;;;;;;;;;;-2.38;77.42;94743.06;5374975;26;20477;-67
2024/04/19 08:19:34;;;;;;;;;;;;;;;-1.85;74.74;94737.19;5387741;26;20357;-67
2024/04/19 08:21:59;;;;;;;;;;;;;;;-1.47;74.18;94731.59;5386066;26;19929;-69
2024/04/19 08:24:26;;;;;;;;;;;;;;;-2.59;78.06;94725.53;5379200;26;20383;-70
2024/04/19 08:26:51;;;;;;;;;;;;;;;-1.78;75.76;94727.09;5390584;26;20441;-68
2024/04/19 08:29:17;;;;;;;;;;;;;;;-2.39;78.46;94730.97;5392643;26;19929;-67
2024/04/19 08:31:42;;;;;;;;;;;;;;;-2.41;79.53;94735.50;5388517;26;20475;-69
2024/04/19 08:34:07;;;;;;;;;;;;;;;-2.58;81.02;94719.34;5389179;26;19929;-68
2024/04/19 08:36:33;;;;;;;;;;;;;;;-2.78;81.59;94726.94;5393774;26;20295;-68
2024/04/19 08:38:58;;;;;;;;;;;;;;;-2.60;83.55;94717.81;5392707;26;19929;-70
2024/04/19 08:41:23;;;;;;;;;;;;;;;-2.17;81.67;94719.69;5390731;26;19988;-69
2024/04/19 08:43:49;;;;;;;;;;;;;;;-1.88;79.17;94720.94;5383888;26;19937;-68
2024/04/19 08:46:14;;;;;;;;;;;;;;;-2.13;77.60;94730.72;5392367;26;19961;-69
2024/04/19 08:48:39;;;;;;;;;;;;;;;-2.40;79.26;94719.72;5374909;26;20441;-70
2024/04/19 08:51:04;;;;;;;;;;;;;;;-2.53;81.58;94725.06;5352523;26;20532;-69
2024/04/19 08:53:31;;;;;;;;;;;;;;;-2.40;81.46;94708.47;5355702;26;19970;-69
2024/04/19 08:55:56;;;;;;;;;;;;;;;-2.90;81.04;94712.22;5365905;26;19937;-68
2024/04/19 08:58:22;;;;;;;;;;;;;;;-2.30;83.07;94709.41;5381910;26;20437;-68
2024/04/19 09:00:47;;;;;;;;;;;;;;;-1.69;79.72;94696.81;5387847;26;19929;-68
2024/04/19 09:03:12;;;;;;;;;;;;;;;-1.33;77.82;94693.91;5381159;26;19936;-67
2024/04/19 09:05:37;;;;;;;;;;;;;;;-2.26;79.60;94704.78;5389275;26;19997;-68
2024/04/19 09:08:04;;;;;;;;;;;;;;;-1.33;79.11;94688.69;5380718;26;19936;-66
2024/04/19 09:10:29;;;;;;;;;;;;;;;-1.35;79.30;94703.69;5381557;26;20465;-67
2024/04/19 09:12:55;;;;;;;;;;;;;;;-0.74;79.92;94686.44;5391187;26;19936;-66
2024/04/19 09:15:20;;;;;;;;;;;;;;;-0.79;78.24;94677.34;5393080;26;20500;-67
2024/04/19 09:17:46;;;;;;;;;;;;;;;-0.74;77.60;94673.38;5392737;26;19990;-68
2024/04/19 09:20:11;;;;;;;;;;;;;;;-0.41;76.26;94669.81;5391573;26;19944;-67
2024/04/19 09:22:36;;;;;;;;;;;;;;;-0.52;77.20;94665.47;5392958;26;20356;-67
2024/04/19 09:25:01;;;;;;;;;;;;;;;-0.65;77.14;94663.94;5387278;26;20000;-68
2024/04/19 09:27:29;;;;;;;;;;;;;;;-0.37;76.57;94669.38;5389953;26;19977;-67
2024/04/19 09:29:55;;;;;;;;;;;;;;;-0.09;76.01;94656.53;5375399;26;19936;-67
2024/04/19 09:32:21;;;;;;;;;;;;;;;-0.13;75.30;94665.59;5389802;26;20451;-67
2024/04/19 09:34:46;;;;;;;;;;;;;;;-0.30;75.85;94661.84;5380166;26;19980;-68
2024/04/19 09:37:11;;;;;;;;;;;;;;;-0.17;75.37;94656.34;5384717;26;19936;-67
2024/04/19 09:39:36;;;;;;;;;;;;;;;0.11;74.02;94648.72;5392507;26;19941;-67
2024/04/19 09:42:02;;;;;;;;;;;;;;;0.31;73.03;94649.53;5389818;26;20034;-68
2024/04/19 09:44:27;;;;;;;;;;;;;;;-0.20;74.87;94652.22;5390705;26;19944;-68
2024/04/19 09:46:52;;;;;;;;;;;;;;;0.46;74.67;94638.63;5380364;26;19929;-66
2024/04/19 09:49:18;;;;;;;;;;;;;;;0.03;74.75;94641.53;5388740;26;20006;-67
2024/04/19 09:51:49;;;;;;;;;;;;;;;-0.67;76.76;94638.88;5384831;26;19936;-66
2024/04/19 09:54:16;;;;;;;;;;;;;;;-0.02;77.15;94628.03;5378539;26;20348;-68
2024/04/19 09:56:57;;;;;;;;;;;;;;;0.23;75.95;94623.22;5388349;26;19930;-67
2024/04/19 09:59:24;;;;;;;;;;;;;;;0.25;76.46;94626.53;5378721;26;20199;-67
2024/04/19 10:01:50;;;;;;;;;;;;;;;0.25;75.68;94618.66;5385222;26;20058;-66
2024/04/19 10:04:16;;;;;;;;;;;;;;;0.33;75.96;94602.25;5385947;26;19957;-67
2024/04/19 10:06:41;;;;;;;;;;;;;;;0.61;74.87;94606.78;5392451;26;20314;-66
2024/04/19 10:09:09;;;;;;;;;;;;;;;0.54;76.07;94602.09;5381536;26;20360;-68
2024/04/19 10:11:37;;;;;;;;;;;;;;;0.88;75.44;94597.34;5382796;26;20275;-67
2024/04/19 10:14:03;;;;;;;;;;;;;;;0.46;76.16;94594.13;5390680;26;20230;-67
2024/04/19 10:16:29;;;;;;;;;;;;;;;0.08;77.19;94604.47;5389334;26;19941;-67
2024/04/19 10:18:54;;;;;;;;;;;;;;;0.21;79.02;94591.13;5383640;26;20274;-68
2024/04/19 10:21:23;;;;;;;;;;;;;;;0.19;77.83;94593.88;5382664;26;19936;-68
2024/04/19 10:23:48;;;;;;;;;;;;;;;-0.27;81.51;94583.09;5383428;26;19941;-68
2024/04/19 10:26:14;;;;;;;;;;;;;;;-0.79;83.84;94589.31;5379960;26;19937;-66
2024/04/19 10:28:39;;;;;;;;;;;;;;;-0.78;86.14;94579.69;5386520;26;20382;-68
2024/04/19 10:31:05;;;;;;;;;;;;;;;-0.21;84.99;94572.09;5385155;26;19930;-68
2024/04/19 10:33:30;;;;;;;;;;;;;;;-0.33;83.86;94568.75;5383258;26;20267;-68
2024/04/19 10:35:55;;;;;;;;;;;;;;;-0.76;86.89;94575.97;5385526;26;19929;-67
2024/04/19 10:38:20;;;;;;;;;;;;;;;-0.50;86.33;94570.28;5389271;26;19929;-67
2024/04/19 10:40:46;;;;;;;;;;;;;;;-0.64;88.21;94575.88;5389990;26;20347;-67
2024/04/19 10:43:11;;;;;;;;;;;;;;;-0.79;89.79;94571.00;5381147;26;19936;-67
2024/04/19 10:45:36;;;;;;;;;;;;;;;-1.03;91.23;94566.91;5390326;26;19940;-68
2024/04/19 10:48:02;;;;;;;;;;;;;;;-0.91;90.27;94556.41;5386462;26;19937;-67
2024/04/19 10:50:27;;;;;;;;;;;;;;;-0.46;88.04;94549.91;5386881;26;20443;-68
2024/04/19 10:52:53;;;;;;;;;;;;;;;-0.48;88.88;94544.78;5388655;26;20193;-67
2024/04/19 10:55:18;;;;;;;;;;;;;;;-0.58;88.26;94547.41;5377026;26;19929;-67
2024/04/19 10:57:44;;;;;;;;;;;;;;;-0.56;89.58;94536.81;5383483;26;20406;-67
2024/04/19 11:00:09;;;;;;;;;;;;;;;-0.03;88.67;94515.63;5382692;26;20276;-67
2024/04/19 11:02:35;;;;;;;;;;;;;;;-0.16;87.59;94513.28;5388490;26;20361;-68
2024/04/19 11:05:02;;;;;;;;;;;;;;;-0.15;86.74;94525.41;5389344;26;19929;-67
2024/04/19 11:07:27;;;;;;;;;;;;;;;-0.31;88.43;94529.38;5381386;26;20349;-68
2024/04/19 11:09:52;;;;;;;;;;;;;;;-0.25;89.59;94501.84;5381488;26;20755;-69
2024/04/19 11:12:18;;;;;;;;;;;;;;;-0.14;88.25;94500.91;5389921;26;19937;-68
2024/04/19 11:14:43;;;;;;;;;;;;;;;-0.50;90.59;94514.50;5385636;26;19997;-67
2024/04/19 11:17:08;;;;;;;;;;;;;;;-0.90;93.01;94503.16;5386870;26;20458;-68
2024/04/19 11:19:34;;;;;;;;;;;;;;;-0.90;93.64;94497.94;5378325;26;20169;-68
2024/04/19 11:21:59;;;;;;;;;;;;;;;-0.52;92.48;94496.34;5384216;26;21227;-67
2024/04/19 11:24:27;;;;;;;;;;;;;;;-0.61;93.56;94494.56;5386963;26;20539;-67
2024/04/19 11:26:53;;;;;;;;;;;;;;;-0.56;93.82;94479.28;5391186;26;19929;-67
2024/04/19 11:29:19;;;;;;;;;;;;;;;-0.30;92.24;94491.81;5384784;26;20576;-68
2024/04/19 11:31:47;;;;;;;;;;;;;;;0.07;91.04;94493.72;5374902;26;20553;-68
2024/04/19 11:34:12;;;;;;;;;;;;;;;0.27;89.37;94459.63;5385725;26;19976;-67
2024/04/19 11:36:38;;;;;;;;;;;;;;;0.15;88.57;94479.09;5384816;26;20003;-68
2024/04/19 11:39:03;;;;;;;;;;;;;;;0.31;87.74;94487.19;5378119;26;20304;-67
2024/04/19 11:41:28;;;;;;;;;;;;;;;1.01;83.86;94466.78;5383223;26;19935;-68
2024/04/19 11:43:58;;;;;;;;;;;;;;;1.26;81.60;94474.09;5375993;26;20496;-68
2024/04/19 11:46:28;;;;;;;;;;;;;;;1.18;82.09;94472.19;5383004;26;20354;-68
2024/04/19 11:48:53;;;;;;;;;;;;;;;1.30;82.21;94491.97;5384555;26;19929;-68
2024/04/19 11:51:19;;;;;;;;;;;;;;;0.65;82.45;94479.78;5388900;26;20058;-68
2024/04/19 11:53:44;;;;;;;;;;;;;;;1.21;84.07;94488.47;5391409;26;20021;-66
2024/04/19 11:56:09;;;;;;;;;;;;;;;1.85;81.92;94492.88;5391823;26;20002;-68
2024/04/19 11:58:34;;;;;;;;;;;;;;;1.99;76.92;94475.78;5390897;26;19929;-67
2024/04/19 12:01:00;;;;;;;;;;;;;;;1.86;75.70;94477.94;5381669;26;19944;-68
2024/04/19 12:03:25;;;;;;;;;;;;;;;2.00;75.29;94472.16;5388317;26;20331;-68
2024/04/19 12:05:50;;;;;;;;;;;;;;;0.85;77.95;94483.97;5388695;26;20116;-68
2024/04/19 12:08:15;;;;;;;;;;;;;;;0.34;78.88;94489.53;5389562;26;20296;-68
2024/04/19 12:10:41;;;;;;;;;;;;;;;0.15;78.42;94507.88;5384238;26;19936;-67
2024/04/19 12:13:08;;;;;;;;;;;;;;;-0.13;79.58;94490.28;5390889;26;19929;-68
2024/04/19 12:15:33;;;;;;;;;;;;;;;-0.38;81.50;94502.97;5389849;26;20437;-67
2024/04/19 12:18:00;;;;;;;;;;;;;;;-0.47;83.04;94509.81;5389566;26;19929;-68
2024/04/19 12:20:25;;;;;;;;;;;;;;;-0.57;84.16;94514.25;5391191;26;20018;-68
2024/04/19 12:22:50;;;;;;;;;;;;;;;-0.71;85.02;94518.06;5382927;26;20386;-68
2024/04/19 12:25:16;;;;;;;;;;;;;;;-0.78;85.37;94509.91;5388483;26;20383;-67
2024/04/19 12:27:41;;;;;;;;;;;;;;;-0.89;86.07;94510.03;5383374;26;20318;-68
2024/04/19 12:30:06;;;;;;;;;;;;;;;-0.37;83.61;94503.78;5391702;26;19947;-67
2024/04/19 12:32:31;;;;;;;;;;;;;;;-0.48;84.34;94492.50;5390796;26;19937;-67
2024/04/19 12:34:57;;;;;;;;;;;;;;;-0.93;85.48;94495.56;5388414;26;20394;-66
2024/04/19 12:37:22;;;;;;;;;;;;;;;-1.00;86.67;94518.78;5389952;26;19940;-67
2024/04/19 12:39:47;;;;;;;;;;;;;;;-1.18;87.98;94526.44;5390224;26;19929;-66
2024/04/19 12:42:12;;;;;;;;;;;;;;;-1.65;89.07;94533.78;5385057;26;19945;-67
2024/04/19 12:44:38;;;;;;;;;;;;;;;-1.69;89.37;94527.16;5391159;26;19928;-66
2024/04/19 12:47:03;;;;;;;;;;;;;;;-2.03;89.45;94535.97;5394528;26;19936;-67